Wind From: 11-12-2017 06:00 Until: 12-12-2017 06:00 warning for: Wind Level: Orange info button

Power and phone distribution networks may be disrupted for relatively long periods., Roofs and chimneys can be damaged. , Tree branches may break. , Vehicles can be deported. , Traffic may be disrupted, particularly on secondary roads in forest areas. Limit your trips. , Limit your speed in highway driving, especially if you drive a vehicle or hitch sensitive to wind. , Do not go for walks in forests or along the coast., In town, be vigilant against possible falling objects., Do not work on roofs and do not touch any electrical line fallen on the ground., Store or secure sensitive objects to wind or likely to be damaged., Always install power generators outside buildings. 


Meteo18 Weather Cam more information Meteo18 Weather Cam


Thunder radar more information blitzortung!


Rain radar more information rain snow radar


Visit our other weather sites:

Template documentation
and downloads

And another site



Weather Underground History page Text

Daily Summary for March 30, 2017 Units:  English    Metric   Both
« Previous Day
Next Day »
Daily Weekly Monthly Yearly Custom
  High: Low: Average:
Temperature: 73.2 °F 47.1 °F 59.9 °F
Dew Point: 52.2 °F 41.9 °F 45.9 °F
Humidity: 83 % 38 % 62 %
Wind Speed: 8 mph 0 mph 1.7 mph
Wind Gust: 12 mph - -
Wind:- - South
Pressure: 30.3 in 30.1 in -
Precipitation: 0 in    
Historical Graphs
 
 
Tabular Data for March 30, 2017
Time Temperature Dew Point Pressure Wind Wind Speed Wind Gust Humidity Rainfall Rate (Hourly)
00:02 54.7 °F 43.9 °F 30.3 in NNW 1 mph 2 mph 67 % 0 in
00:12 53.8 °F 43.9 °F 30.3 in Calm   1 mph 69 % 0 in
00:17 53.6 °F 43.7 °F 30.3 in Calm   1 mph 69 % 0 in
00:22 53.2 °F 43.7 °F 30.3 in Calm   1 mph 70 % 0 in
00:32 52.2 °F 43.3 °F 30.3 in Calm     72 % 0 in
00:42 52.7 °F 43.9 °F 30.3 in Calm     72 % 0 in
00:52 52.9 °F 43.7 °F 30.3 in Calm     71 % 0 in
00:57 52.5 °F 43.7 °F 30.3 in Calm     72 % 0 in
01:02 52.5 °F 43.3 °F 30.3 in Calm     71 % 0 in
01:12 52.2 °F 43.3 °F 30.3 in NW 1 mph 1 mph 72 % 0 in
01:17 52.5 °F 43.7 °F 30.3 in NW 1 mph 1 mph 72 % 0 in
01:22 52.9 °F 43.7 °F 30.3 in NW 1 mph 2 mph 71 % 0 in
01:32 52.9 °F 43.7 °F 30.3 in NW 1 mph 2 mph 71 % 0 in
01:42 52.9 °F 44.1 °F 30.3 in Calm   1 mph 72 % 0 in
01:52 53.2 °F 44.1 °F 30.3 in NNW 1 mph 2 mph 71 % 0 in
01:57 53.1 °F 43.9 °F 30.3 in Calm   2 mph 71 % 0 in
02:02 53.2 °F 44.1 °F 30.3 in Calm   2 mph 71 % 0 in
02:12 53.1 °F 43.9 °F 30.3 in Calm   1 mph 71 % 0 in
02:17 53.1 °F 43.9 °F 30.3 in Calm   1 mph 71 % 0 in
02:22 52.9 °F 43.7 °F 30.3 in NNW 2 mph 2 mph 71 % 0 in
02:32 52.5 °F 43.3 °F 30.3 in Calm   2 mph 71 % 0 in
02:42 52.7 °F 43.9 °F 30.3 in Calm   2 mph 72 % 0 in
02:47 53.1 °F 43.9 °F 30.3 in Calm   1 mph 71 % 0 in
02:52 52.9 °F 43.3 °F 30.3 in Calm   1 mph 70 % 0 in
02:57 52.3 °F 43.5 °F 30.3 in Calm   1 mph 72 % 0 in
03:02 52.3 °F 43.5 °F 30.3 in Calm   1 mph 72 % 0 in
03:12 52.9 °F 43.7 °F 30.3 in NNE 1 mph 1 mph 71 % 0 in
03:17 53.1 °F 43.9 °F 30.3 in NE 1 mph 2 mph 71 % 0 in
03:22 53.4 °F 43.9 °F 30.3 in Calm   2 mph 70 % 0 in
03:32 53.1 °F 43.2 °F 30.3 in Calm   2 mph 69 % 0 in
03:37 52.3 °F 43.2 °F 30.3 in Calm   2 mph 71 % 0 in
03:42 52.2 °F 43.3 °F 30.3 in Calm   2 mph 72 % 0 in
03:47 52.2 °F 43.3 °F 30.3 in North 1 mph 1 mph 72 % 0 in
03:52 52.2 °F 43 °F 30.3 in Calm   1 mph 71 % 0 in
04:02 51.6 °F 43 °F 30.3 in Calm   1 mph 72 % 0 in
04:12 49.8 °F 42.6 °F 30.3 in WNW 1 mph 1 mph 76 % 0 in
04:17 49.5 °F 42.6 °F 30.3 in WNW 1 mph 2 mph 77 % 0 in
04:22 49.8 °F 43 °F 30.3 in Calm   2 mph 77 % 0 in
04:27 50.4 °F 42.8 °F 30.3 in Calm   2 mph 75 % 0 in
04:32 50.2 °F 43 °F 30.3 in Calm   1 mph 76 % 0 in
04:42 50 °F 42.8 °F 30.3 in NNW 1 mph 1 mph 76 % 0 in
04:47 50.2 °F 42.6 °F 30.3 in Calm   2 mph 75 % 0 in
04:52 49.6 °F 42.8 °F 30.3 in NW 1 mph 2 mph 77 % 0 in
04:57 50 °F 43.2 °F 30.3 in NW 1 mph 2 mph 77 % 0 in
05:02 50.5 °F 43 °F 30.3 in Calm   2 mph 75 % 0 in
05:12 49.8 °F 42.6 °F 30.3 in NW 1 mph 1 mph 76 % 0 in
05:17 50 °F 42.8 °F 30.3 in NW 1 mph 1 mph 76 % 0 in
05:22 49.8 °F 42.6 °F 30.3 in NW 1 mph 1 mph 76 % 0 in
05:32 50.2 °F 43 °F 30.3 in NW 1 mph 1 mph 76 % 0 in
05:37 48.9 °F 42.1 °F 30.3 in Calm   1 mph 77 % 0 in
05:42 48 °F 41.9 °F 30.3 in Calm   1 mph 79 % 0 in
05:52 48.9 °F 42.6 °F 30.3 in WNW 1 mph 1 mph 79 % 0 in
05:57 47.8 °F 42.3 °F 30.3 in WNW 1 mph 1 mph 81 % 0 in
06:02 47.1 °F 41.9 °F 30.3 in Calm   1 mph 82 % 0 in
06:07 47.7 °F 42.8 °F 30.3 in WNW 1 mph 2 mph 83 % 0 in
06:12 48.4 °F 42.4 °F 30.3 in Calm   2 mph 80 % 0 in
06:17 48 °F 42.1 °F 30.3 in Calm   1 mph 80 % 0 in
06:22 48.2 °F 42.6 °F 30.3 in Calm   1 mph 81 % 0 in
06:27 48.4 °F 42.8 °F 30.3 in Calm   1 mph 81 % 0 in
06:32 48.4 °F 42.4 °F 30.3 in Calm   1 mph 80 % 0 in
06:37 48 °F 42.1 °F 30.3 in Calm   1 mph 80 % 0 in
06:42 47.7 °F 42.1 °F 30.3 in WNW 1 mph 1 mph 81 % 0 in
06:52 47.8 °F 42.6 °F 30.3 in Calm   1 mph 82 % 0 in
06:57 48.2 °F 42.6 °F 30.3 in Calm   1 mph 81 % 0 in
07:02 48.6 °F 43 °F 30.3 in Calm   1 mph 81 % 0 in
07:12 48.4 °F 42.8 °F 30.3 in Calm     81 % 0 in
07:17 48.4 °F 42.8 °F 30.3 in Calm     81 % 0 in
07:22 48.2 °F 42.6 °F 30.3 in Calm     81 % 0 in
07:32 47.7 °F 42.4 °F 30.3 in Calm     82 % 0 in
07:42 47.8 °F 42.6 °F 30.3 in Calm     82 % 0 in
07:52 48.6 °F 42.6 °F 30.3 in Calm     80 % 0 in
07:57 48.9 °F 43 °F 30.3 in Calm     80 % 0 in
08:02 48.6 °F 42.6 °F 30.3 in Calm     80 % 0 in
08:12 49.3 °F 43.3 °F 30.3 in Calm   2 mph 80 % 0 in
08:17 49.6 °F 43 °F 30.3 in NNE 1 mph 2 mph 78 % 0 in
08:22 50.2 °F 43.5 °F 30.3 in Calm   2 mph 78 % 0 in
08:32 50.7 °F 43.7 °F 30.3 in Calm   1 mph 77 % 0 in
08:42 51.3 °F 43.9 °F 30.3 in ENE 1 mph 3 mph 76 % 0 in
08:52 51.3 °F 43.9 °F 30.3 in Calm   3 mph 76 % 0 in
08:57 51.6 °F 44.2 °F 30.3 in Calm   3 mph 76 % 0 in
09:02 52.2 °F 44.8 °F 30.3 in Calm   3 mph 76 % 0 in
09:07 52.9 °F 45.1 °F 30.3 in Calm   3 mph 75 % 0 in
09:12 53.2 °F 45.1 °F 30.3 in Calm   2 mph 74 % 0 in
09:17 53.2 °F 44.8 °F 30.3 in Calm   2 mph 73 % 0 in
09:22 53.4 °F 45.3 °F 30.3 in East 1 mph 2 mph 74 % 0 in
09:32 53.4 °F 45.3 °F 30.3 in Calm   3 mph 74 % 0 in
09:42 53.4 °F 45.7 °F 30.3 in SE 2 mph 4 mph 75 % 0 in
09:52 54.9 °F 46.4 °F 30.3 in SSE 2 mph 5 mph 73 % 0 in
09:57 55.2 °F 46.8 °F 30.3 in East 1 mph 5 mph 73 % 0 in
10:02 55 °F 46.2 °F 30.3 in Calm   3 mph 72 % 0 in
10:12 55.9 °F 47.5 °F 30.3 in SE 2 mph 4 mph 73 % 0 in
10:17 55.9 °F 47.1 °F 30.3 in SSE 5 mph 5 mph 72 % 0 in
10:22 56.1 °F 47.3 °F 30.3 in SE 1 mph 6 mph 72 % 0 in
10:32 57.2 °F 47.8 °F 30.3 in ESE 1 mph 6 mph 71 % 0 in
10:37 57.4 °F 48 °F 30.3 in ESE 2 mph 6 mph 71 % 0 in
10:42 57.9 °F 47.8 °F 30.3 in SSE 4 mph 6 mph 69 % 0 in
10:47 58.5 °F 48.4 °F 30.3 in SE 3 mph 6 mph 69 % 0 in
10:52 58.8 °F 47.8 °F 30.3 in East 1 mph 6 mph 67 % 0 in
11:02 59.9 °F 48.6 °F 30.3 in SE 1 mph 7 mph 66 % 0 in
11:12 60.6 °F 48.7 °F 30.3 in SE 2 mph 7 mph 65 % 0 in
11:17 61 °F 49.1 °F 30.3 in SE 2 mph 7 mph 65 % 0 in
11:22 61.2 °F 48.9 °F 30.3 in ESE 5 mph 7 mph 64 % 0 in
11:32 62.1 °F 49.8 °F 30.3 in East 3 mph 10 mph 64 % 0 in
11:42 62.4 °F 48.4 °F 30.3 in SE 5 mph 9 mph 60 % 0 in
11:47 62.8 °F 47.3 °F 30.3 in ESE 3 mph 9 mph 57 % 0 in
11:52 63 °F 47.5 °F 30.3 in SE 6 mph 11 mph 57 % 0 in
12:02 64.2 °F 50 °F 30.3 in SE 4 mph 11 mph 60 % 0 in
12:12 64.2 °F 48.7 °F 30.3 in ESE 3 mph 12 mph 57 % 0 in
12:17 64.6 °F 50 °F 30.3 in SE 1 mph 12 mph 59 % 0 in
12:22 64.8 °F 49.6 °F 30.3 in ESE 4 mph 11 mph 58 % 0 in
12:32 65.5 °F 49.8 °F 30.3 in SE 4 mph 11 mph 57 % 0 in
12:37 65.7 °F 47.5 °F 30.3 in SSE 6 mph 11 mph 52 % 0 in
12:42 65.8 °F 48.2 °F 30.3 in SSE 7 mph 10 mph 53 % 0 in
12:47 66.6 °F 47.8 °F 30.3 in ESE 6 mph 10 mph 51 % 0 in
12:52 66.4 °F 48.7 °F 30.2 in East 5 mph 12 mph 53 % 0 in
13:02 66.9 °F 48.2 °F 30.2 in SE 5 mph 12 mph 51 % 0 in
13:12 67.6 °F 48.4 °F 30.2 in SE 5 mph 12 mph 50 % 0 in
13:17 67.5 °F 48.7 °F 30.2 in SE 5 mph 12 mph 51 % 0 in
13:22 67.6 °F 48.4 °F 30.2 in SSW 2 mph 12 mph 50 % 0 in
13:32 67.8 °F 48 °F 30.2 in SSE 5 mph 11 mph 49 % 0 in
13:42 68.5 °F 48.6 °F 30.2 in SE 5 mph 11 mph 49 % 0 in
13:47 68.2 °F 48.4 °F 30.2 in SE 8 mph 10 mph 49 % 0 in
13:52 68.7 °F 48.7 °F 30.2 in SE 6 mph 10 mph 49 % 0 in
13:57 69.4 °F 52.2 °F 30.2 in SE 6 mph 10 mph 54 % 0 in
14:02 69.4 °F 49.5 °F 30.2 in SW 5 mph 10 mph 49 % 0 in
14:12 70 °F 48.2 °F 30.2 in SSE 5 mph 10 mph 46 % 0 in
14:17 70 °F 48.2 °F 30.2 in SSE 6 mph 10 mph 46 % 0 in
14:22 69.8 °F 48.7 °F 30.2 in SSE 5 mph 11 mph 47 % 0 in
14:27 70.3 °F 46.8 °F 30.2 in ESE 5 mph 11 mph 43 % 0 in
14:32 70.3 °F 47.5 °F 30.2 in SE 4 mph 11 mph 44 % 0 in
14:37 70.9 °F 48.6 °F 30.2 in SSE 3 mph 10 mph 45 % 0 in
14:42 71.4 °F 47.8 °F 30.2 in South 2 mph 10 mph 43 % 0 in
14:47 71.4 °F 46.6 °F 30.2 in SSE 4 mph 10 mph 41 % 0 in
14:52 71.2 °F 45.7 °F 30.2 in SE 4 mph 9 mph 40 % 0 in
15:02 71.6 °F 45.3 °F 30.2 in SE 2 mph 9 mph 39 % 0 in
15:12 72.1 °F 46.4 °F 30.2 in SE 2 mph 9 mph 40 % 0 in
15:17 72 °F 46.9 °F 30.2 in SSE 4 mph 8 mph 41 % 0 in
15:22 71.8 °F 48 °F 30.2 in South 3 mph 8 mph 43 % 0 in
15:32 72 °F 46.9 °F 30.2 in SSE 4 mph 8 mph 41 % 0 in
15:42 72.7 °F 47.7 °F 30.2 in ESE 3 mph 11 mph 41 % 0 in
15:47 72.5 °F 46.8 °F 30.2 in SE 4 mph 11 mph 40 % 0 in
15:52 72.9 °F 47.8 °F 30.2 in SE 6 mph 11 mph 41 % 0 in
15:57 72.9 °F 48.4 °F 30.2 in ESE 6 mph 8 mph 42 % 0 in
16:02 72.7 °F 48.9 °F 30.2 in East 5 mph 8 mph 43 % 0 in
16:07 72.1 °F 48.4 °F 30.2 in SSE 7 mph 8 mph 43 % 0 in
16:17 73 °F 47.3 °F 30.2 in SW 5 mph 9 mph 40 % 0 in
16:22 72.9 °F 45.7 °F 30.2 in East 2 mph 9 mph 38 % 0 in
16:27 72.9 °F 46.4 °F 30.2 in SSE 3 mph 9 mph 39 % 0 in
16:32 73 °F 47.3 °F 30.2 in East 3 mph 9 mph 40 % 0 in
16:42 73.2 °F 49.5 °F 30.2 in ESE 7 mph 9 mph 43 % 0 in
16:47 72.7 °F 47.7 °F 30.2 in SSE 3 mph 9 mph 41 % 0 in
16:52 72.3 °F 49.8 °F 30.2 in East 5 mph 9 mph 45 % 0 in
16:57 72.3 °F 49.8 °F 30.2 in East 4 mph 8 mph 45 % 0 in
17:02 72.5 °F 47.5 °F 30.2 in SE 4 mph 8 mph 41 % 0 in
17:12 72 °F 47.7 °F 30.2 in East 6 mph 7 mph 42 % 0 in
17:17 72.1 °F 47.8 °F 30.2 in SE 3 mph 9 mph 42 % 0 in
17:22 72.1 °F 47.8 °F 30.2 in SE 3 mph 9 mph 42 % 0 in
17:32 72 °F 48.2 °F 30.2 in East 3 mph 8 mph 43 % 0 in
17:37 72 °F 48.2 °F 30.1 in ESE 2 mph 8 mph 43 % 0 in
17:42 72 °F 48.2 °F 30.1 in SE 3 mph 8 mph 43 % 0 in
17:47 72 °F 46.4 °F 30.1 in East 2 mph 5 mph 40 % 0 in
17:52 72 °F 47.7 °F 30.1 in SE 2 mph 5 mph 42 % 0 in
17:57 72 °F 45.7 °F 30.1 in East 5 mph 6 mph 39 % 0 in
18:02 71.6 °F 45.3 °F 30.1 in ESE 3 mph 7 mph 39 % 0 in
18:12 71.4 °F 45.9 °F 30.1 in SE 3 mph 7 mph 40 % 0 in
18:17 71.2 °F 46.4 °F 30.1 in SE 2 mph 12 mph 41 % 0 in
18:22 70.9 °F 46 °F 30.1 in SE 3 mph 12 mph 41 % 0 in
18:27 70.5 °F 45.7 °F 30.1 in SE 2 mph 12 mph 41 % 0 in
18:37 70.2 °F 46.6 °F 30.1 in ESE 2 mph 8 mph 43 % 0 in
18:42 69.8 °F 46.2 °F 30.1 in ESE 2 mph 8 mph 43 % 0 in
18:52 69.4 °F 46.6 °F 30.1 in ESE 3 mph 5 mph 44 % 0 in
19:02 69.3 °F 47.7 °F 30.1 in SE 4 mph 5 mph 46 % 0 in
19:12 68.7 °F 48.2 °F 30.1 in ESE 2 mph 5 mph 48 % 0 in
19:17 68.5 °F 48 °F 30.1 in ESE 3 mph 5 mph 48 % 0 in
19:22 68.5 °F 47.5 °F 30.1 in ESE 3 mph 5 mph 47 % 0 in
19:32 68 °F 47.7 °F 30.1 in ESE 1 mph 6 mph 48 % 0 in
19:42 66.6 °F 47.8 °F 30.1 in East 1 mph 5 mph 51 % 0 in
19:47 66.2 °F 47.5 °F 30.1 in East 1 mph 4 mph 51 % 0 in
19:52 66.4 °F 47.7 °F 30.1 in ENE 2 mph 3 mph 51 % 0 in
20:02 66 °F 47.8 °F 30.1 in ESE 1 mph 3 mph 52 % 0 in
20:12 65.3 °F 47.7 °F 30.1 in Calm   3 mph 53 % 0 in
20:17 65.1 °F 47.5 °F 30.1 in Calm   3 mph 53 % 0 in
20:22 64.9 °F 47.8 °F 30.1 in Calm   3 mph 54 % 0 in
20:32 64.2 °F 47.7 °F 30.1 in Calm   2 mph 55 % 0 in
20:42 63.5 °F 47.1 °F 30.1 in Calm   1 mph 55 % 0 in
20:47 63.3 °F 46.9 °F 30.1 in Calm   1 mph 55 % 0 in
20:52 63.3 °F 46.9 °F 30.1 in Calm   1 mph 55 % 0 in
20:57 63.1 °F 46.8 °F 30.1 in Calm     55 % 0 in
21:02 62.8 °F 46.9 °F 30.1 in Calm     56 % 0 in
21:12 62.6 °F 46.8 °F 30.1 in Calm     56 % 0 in
21:17 62.6 °F 46.8 °F 30.1 in Calm   1 mph 56 % 0 in
21:22 62.8 °F 46.9 °F 30.1 in Calm   1 mph 56 % 0 in
21:27 62.2 °F 46.8 °F 30.1 in WNW 1 mph 1 mph 57 % 0 in
21:32 61.3 °F 46.4 °F 30.1 in WNW 1 mph 1 mph 58 % 0 in
21:42 61.3 °F 46.4 °F 30.1 in Calm   1 mph 58 % 0 in
21:47 61.5 °F 46.6 °F 30.1 in Calm   1 mph 58 % 0 in
21:52 61.5 °F 46.6 °F 30.1 in Calm   1 mph 58 % 0 in
21:57 61.3 °F 46.4 °F 30.1 in Calm   1 mph 58 % 0 in
22:02 61 °F 46.6 °F 30.1 in Calm   1 mph 59 % 0 in
22:12 60.4 °F 46.4 °F 30.1 in NNW 2 mph   60 % 0 in
22:17 60.6 °F 46.2 °F 30.1 in NNW 2 mph 3 mph 59 % 0 in
22:22 60.4 °F 46.4 °F 30.1 in NW 2 mph 3 mph 60 % 0 in
22:32 60.4 °F 46.4 °F 30.1 in NW 1 mph 3 mph 60 % 0 in
22:37 60.6 °F 46.2 °F 30.1 in NW 2 mph 3 mph 59 % 0 in
22:42 60.4 °F 46.4 °F 30.1 in NW 1 mph 3 mph 60 % 0 in
22:52 59.7 °F 46.2 °F 30.1 in NW 1 mph 2 mph 61 % 0 in
22:57 59.7 °F 46.2 °F 30.1 in NW 1 mph 2 mph 61 % 0 in
23:02 59.7 °F 46.2 °F 30.1 in WNW 1 mph 2 mph 61 % 0 in
23:12 59.7 °F 46.8 °F 30.1 in Calm   2 mph 62 % 0 in
23:17 59.4 °F 46.4 °F 30.1 in Calm   2 mph 62 % 0 in
23:32 59.7 °F 46.8 °F 30.1 in Calm     62 % 0 in
23:42 59.2 °F 46.6 °F 30.1 in Calm     63 % 0 in
23:47 58.1 °F 46.4 °F 30.1 in Calm     65 % 0 in
23:52 57.9 °F 46.6 °F 30.1 in Calm     66 % 0 in
23:57 57.4 °F 46.6 °F 30.1 in Calm     67 % 0 in
Meteo18
Compliments of Weather Underground - 4 mb

Script developed by  Jim McMurry - jmcmurry@mwt.net Adapted for the template by  Wim van der Kuil - Leuven-Template.eu

You find our weather info also at:

European Weather Network

Weather Underground

Equipment we use:

Weather-station
Davis Vue

Weather-program
Meteohub

Weather-server
Raspberry PI 2 B+

Provider
1 and 1

Davis Vue

Meteohub

Raspberry PI 2 B+

1 and 1